Time;durP1;ratioP1;P1;durP2;ratioP2;P2;SDS_P1;SDS_P2;PMS_P1;PMS_P2;Temp;Humidity;BMP_temperature;BMP_pressure;BME280_temperature;BME280_humidity;BME280_pressure;Samples;Min_cycle;Max_cycle;Signal;HPM_P1;HPM_P2
2022/12/10 00:01:32;;;;;;;23.15;14.13;;;2.80;99.90;;;;;;4173208;28;20029;-62
2022/12/10 00:03:33;;;;;;;23.10;13.98;;;2.70;99.90;;;;;;4178847;28;20515;-62
2022/12/10 00:05:34;;;;;;;21.75;13.48;;;2.70;99.90;;;;;;4178862;28;20649;-62
2022/12/10 00:07:35;;;;;;;24.38;14.57;;;2.70;99.90;;;;;;4184713;28;20049;-62
2022/12/10 00:09:36;;;;;;;22.38;14.00;;;2.70;99.90;;;;;;4185821;28;20451;-62
2022/12/10 00:11:36;;;;;;;23.83;15.32;;;2.70;99.90;;;;;;4173028;28;20055;-62
2022/12/10 00:13:38;;;;;;;27.05;15.25;;;2.70;99.90;;;;;;4174123;28;20135;-65
2022/12/10 00:15:38;;;;;;;22.23;13.80;;;2.70;99.90;;;;;;4172629;28;20037;-62
2022/12/10 00:17:39;;;;;;;23.50;13.93;;;2.70;99.90;;;;;;4172407;28;20033;-62
2022/12/10 00:19:40;;;;;;;24.40;14.95;;;2.70;99.90;;;;;;4173739;28;20091;-62
2022/12/10 00:21:41;;;;;;;24.30;15.02;;;2.60;99.90;;;;;;4185028;28;20028;-62
2022/12/10 00:23:42;;;;;;;25.60;13.93;;;2.60;99.90;;;;;;4179476;28;20031;-62
2022/12/10 00:25:43;;;;;;;26.08;14.65;;;2.60;99.90;;;;;;4188537;28;20439;-62
2022/12/10 00:27:43;;;;;;;23.60;13.50;;;2.60;99.90;;;;;;4185789;28;20089;-62
2022/12/10 00:29:44;;;;;;;25.02;14.75;;;2.60;99.90;;;;;;4185458;28;20517;-63
2022/12/10 00:31:44;;;;;;;22.15;13.52;;;2.50;99.90;;;;;;4188517;28;20391;-62
2022/12/10 00:33:46;;;;;;;21.48;12.60;;;2.50;99.90;;;;;;4185470;28;20618;-63
2022/12/10 00:35:46;;;;;;;22.40;13.43;;;2.50;99.90;;;;;;4190788;28;20513;-63
2022/12/10 00:37:47;;;;;;;22.30;13.52;;;2.50;99.90;;;;;;4184309;28;20036;-63
2022/12/10 00:39:48;;;;;;;22.98;13.43;;;2.50;99.90;;;;;;4191939;28;20107;-63
2022/12/10 00:41:49;;;;;;;20.73;13.40;;;2.50;99.90;;;;;;4192865;28;20045;-63
2022/12/10 00:43:49;;;;;;;23.05;13.85;;;2.40;99.90;;;;;;4189518;28;20044;-63
2022/12/10 00:45:50;;;;;;;22.25;13.60;;;2.40;99.90;;;;;;4191900;28;20032;-63
2022/12/10 00:47:51;;;;;;;22.92;13.93;;;2.40;99.90;;;;;;4187659;28;20093;-63
2022/12/10 00:49:51;;;;;;;25.08;14.23;;;2.40;99.90;;;;;;4192335;28;20036;-63
2022/12/10 00:51:52;;;;;;;24.05;13.93;;;2.40;99.90;;;;;;4192362;28;20095;-63
2022/12/10 00:53:54;;;;;;;24.58;14.20;;;2.30;99.90;;;;;;4192956;28;20459;-63
2022/12/10 00:55:55;;;;;;;26.95;15.98;;;2.30;99.90;;;;;;4189329;28;20040;-63
2022/12/10 00:57:55;;;;;;;23.38;14.50;;;2.30;99.90;;;;;;4187115;28;20048;-63
2022/12/10 00:59:56;;;;;;;22.52;13.32;;;2.30;99.90;;;;;;4188311;28;20136;-63
2022/12/10 01:01:57;;;;;;;25.52;13.63;;;2.30;99.90;;;;;;4188867;28;20029;-63
2022/12/10 01:04:03;;;;;;;25.65;14.63;;;2.20;99.90;;;;;;4186218;28;20036;-62
2022/12/10 01:06:09;;;;;;;23.90;15.18;;;2.20;99.90;;;;;;4188565;28;20070;-62
2022/12/10 01:08:10;;;;;;;25.70;14.68;;;2.20;99.90;;;;;;4183595;28;20029;-62
2022/12/10 01:10:11;;;;;;;22.23;13.60;;;2.20;99.90;;;;;;4183394;28;20482;-63
2022/12/10 01:12:11;;;;;;;24.27;13.70;;;2.20;99.90;;;;;;4185812;28;20047;-63
2022/12/10 01:14:17;;;;;;;25.33;14.32;;;2.20;99.90;;;;;;4189402;28;20075;-63
2022/12/10 01:16:19;;;;;;;27.63;15.00;;;2.20;99.90;;;;;;4189271;28;20036;-63
2022/12/10 01:18:20;;;;;;;25.25;13.73;;;2.20;99.90;;;;;;4190563;28;20521;-63
2022/12/10 01:20:20;;;;;;;25.30;12.95;;;2.20;99.90;;;;;;4187457;28;20041;-63
2022/12/10 01:22:21;;;;;;;23.83;13.82;;;2.20;99.90;;;;;;4189424;28;20108;-63
2022/12/10 01:24:23;;;;;;;23.10;12.77;;;2.20;99.90;;;;;;4187302;28;20075;-63
2022/12/10 01:26:28;;;;;;;21.15;12.63;;;2.10;99.90;;;;;;4190534;28;20056;-62
2022/12/10 01:28:33;;;;;;;22.27;12.85;;;2.10;99.90;;;;;;4189773;28;20124;-62
2022/12/10 01:30:33;;;;;;;24.25;13.68;;;2.10;99.90;;;;;;4188605;28;20075;-62
2022/12/10 01:32:34;;;;;;;29.17;15.68;;;2.10;99.90;;;;;;4193481;28;20040;-62
2022/12/10 01:34:35;;;;;;;24.10;14.40;;;2.10;99.90;;;;;;4182575;28;20048;-62
2022/12/10 01:36:41;;;;;;;24.55;14.88;;;2.10;99.90;;;;;;4174423;28;20045;-62
2022/12/10 01:38:42;;;;;;;24.38;15.18;;;2.10;99.90;;;;;;4175970;28;20029;-62
2022/12/10 01:40:42;;;;;;;21.17;13.50;;;2.10;99.90;;;;;;4186280;28;20537;-62
2022/12/10 01:42:43;;;;;;;24.45;14.52;;;2.10;99.90;;;;;;4187978;28;20033;-62
2022/12/10 01:44:43;;;;;;;27.10;14.90;;;2.10;99.90;;;;;;4188433;28;20021;-62
2022/12/10 01:46:47;;;;;;;24.35;13.82;;;2.10;99.90;;;;;;4190113;28;20111;-62
2022/12/10 01:48:47;;;;;;;24.42;14.68;;;2.10;99.90;;;;;;4185967;28;20450;-62
2022/12/10 01:50:48;;;;;;;27.10;15.20;;;2.10;99.90;;;;;;4187898;28;20060;-62
2022/12/10 01:52:49;;;;;;;23.95;14.55;;;2.10;99.90;;;;;;4188229;28;20136;-63
2022/12/10 01:54:49;;;;;;;28.10;15.05;;;2.10;99.90;;;;;;4191539;28;20067;-62
2022/12/10 01:57:02;;;;;;;24.60;13.82;;;2.00;99.90;;;;;;4185037;28;20441;-62
2022/12/10 01:59:03;;;;;;;23.73;13.13;;;2.00;99.90;;;;;;4187173;28;20248;-62
2022/12/10 02:01:22;;;;;;;24.23;14.18;;;2.10;99.90;;;;;;4184973;28;20033;-62
2022/12/10 02:03:42;;;;;;;22.88;14.05;;;2.00;99.90;;;;;;4185174;28;20040;-62
2022/12/10 02:05:54;;;;;;;24.52;13.65;;;2.00;99.90;;;;;;4182771;28;20496;-62
2022/12/10 02:08:18;;;;;;;20.60;12.45;;;2.00;99.90;;;;;;4190208;28;20032;-62
2022/12/10 02:10:54;;;;;;;23.45;14.45;;;2.00;99.90;;;;;;4190393;28;20078;-64
2022/12/10 02:13:01;;;;;;;23.13;14.48;;;2.00;99.90;;;;;;4165570;28;20043;-62
2022/12/10 02:15:12;;;;;;;23.35;13.95;;;2.00;99.90;;;;;;4192038;28;20563;-62
2022/12/10 02:17:15;;;;;;;27.15;15.27;;;1.90;99.90;;;;;;4184778;28;20231;-62
2022/12/10 02:19:41;;;;;;;25.05;14.30;;;1.90;99.90;;;;;;4186983;28;20033;-62
2022/12/10 02:21:46;;;;;;;25.55;14.80;;;1.90;99.90;;;;;;4179743;28;20037;-62
2022/12/10 02:23:55;;;;;;;22.60;13.88;;;1.90;99.90;;;;;;4190702;28;20036;-61
2022/12/10 02:26:15;;;;;;;24.45;14.90;;;1.90;99.90;;;;;;4185000;28;20424;-62
2022/12/10 02:28:36;;;;;;;23.73;14.35;;;1.90;99.90;;;;;;4182052;28;20115;-61
2022/12/10 02:30:40;;;;;;;24.58;15.00;;;1.90;99.90;;;;;;4187956;28;20059;-62
2022/12/10 02:32:43;;;;;;;27.35;15.38;;;1.90;99.90;;;;;;4191119;28;20028;-62
2022/12/10 02:34:47;;;;;;;26.45;15.00;;;1.90;99.90;;;;;;4187449;28;20041;-62
2022/12/10 02:36:52;;;;;;;26.25;15.05;;;1.90;99.90;;;;;;4185814;28;20043;-62
2022/12/10 02:38:53;;;;;;;25.33;14.85;;;1.90;99.90;;;;;;4185799;28;20368;-62
2022/12/10 02:41:00;;;;;;;26.55;15.98;;;1.90;99.90;;;;;;4182637;28;20025;-62
2022/12/10 02:43:01;;;;;;;27.17;14.45;;;1.90;99.90;;;;;;4186872;28;20033;-62
2022/12/10 02:45:02;;;;;;;22.40;13.40;;;1.90;99.90;;;;;;4184102;28;20498;-62
2022/12/10 02:47:03;;;;;;;24.30;14.60;;;1.90;99.90;;;;;;4177755;28;20434;-62
2022/12/10 02:49:06;;;;;;;24.10;14.65;;;1.90;99.90;;;;;;4184518;28;20037;-62
2022/12/10 02:51:07;;;;;;;25.20;14.00;;;1.90;99.90;;;;;;4191432;28;20058;-62
2022/12/10 02:53:08;;;;;;;27.23;14.20;;;1.90;99.90;;;;;;4189685;28;20049;-62
2022/12/10 02:55:12;;;;;;;23.88;13.77;;;1.90;99.90;;;;;;4190084;28;20045;-62
2022/12/10 02:57:23;;;;;;;24.02;14.48;;;1.90;99.90;;;;;;4185869;28;20111;-62
2022/12/10 02:59:34;;;;;;;24.45;13.98;;;1.90;99.90;;;;;;4185273;28;20063;-62
2022/12/10 03:01:44;;;;;;;22.30;13.52;;;1.90;99.90;;;;;;4183384;28;20032;-62
2022/12/10 03:03:52;;;;;;;26.13;14.45;;;1.90;99.90;;;;;;4185869;28;20033;-62
2022/12/10 03:06:18;;;;;;;25.33;13.95;;;1.90;99.90;;;;;;4184403;28;20120;-62
2022/12/10 03:08:21;;;;;;;22.55;13.32;;;1.90;99.90;;;;;;4187295;28;20079;-62
2022/12/10 03:10:37;;;;;;;25.20;14.68;;;1.90;99.90;;;;;;4181703;28;20047;-62
2022/12/10 03:12:59;;;;;;;26.85;13.95;;;1.90;99.90;;;;;;4184811;28;20158;-62
2022/12/10 03:15:04;;;;;;;24.70;14.32;;;1.90;99.90;;;;;;4170135;28;20037;-62
2022/12/10 03:17:06;;;;;;;26.15;15.45;;;1.80;99.90;;;;;;4180352;28;20090;-62
2022/12/10 03:19:16;;;;;;;24.30;14.27;;;1.80;99.90;;;;;;4190351;28;20124;-62
2022/12/10 03:21:18;;;;;;;24.50;14.90;;;1.80;99.90;;;;;;4188853;28;20090;-62
2022/12/10 03:23:20;;;;;;;32.53;15.90;;;1.80;99.90;;;;;;4190894;28;20051;-62
2022/12/10 03:25:24;;;;;;;31.38;15.35;;;1.90;99.90;;;;;;4189115;28;20044;-62
2022/12/10 03:27:25;;;;;;;26.73;14.63;;;1.80;99.90;;;;;;4182138;28;20079;-62
2022/12/10 03:29:31;;;;;;;27.65;15.27;;;1.90;99.90;;;;;;4186351;28;20036;-62
2022/12/10 03:31:33;;;;;;;28.15;15.88;;;1.90;99.90;;;;;;4185978;28;20029;-62
2022/12/10 03:33:34;;;;;;;29.65;16.80;;;1.90;99.90;;;;;;4187140;28;20040;-62
2022/12/10 03:35:35;;;;;;;31.50;16.20;;;1.90;99.90;;;;;;4177569;28;20069;-62
2022/12/10 03:37:36;;;;;;;27.75;15.90;;;1.90;99.90;;;;;;4177780;28;20454;-62
2022/12/10 03:39:37;;;;;;;29.42;16.25;;;1.90;99.90;;;;;;4177332;28;20083;-62
2022/12/10 03:41:38;;;;;;;29.88;16.40;;;1.90;99.90;;;;;;4182202;28;20032;-62
2022/12/10 03:43:57;;;;;;;27.52;15.80;;;1.90;99.90;;;;;;4173993;28;20445;-62
2022/12/10 03:45:57;;;;;;;28.52;16.30;;;1.90;99.90;;;;;;4170326;28;20041;-62
2022/12/10 03:47:58;;;;;;;28.77;16.63;;;1.90;99.90;;;;;;4186691;28;20094;-62
2022/12/10 03:49:58;;;;;;;28.67;16.88;;;1.90;99.90;;;;;;4189347;28;20037;-61
2022/12/10 03:51:59;;;;;;;28.73;15.52;;;1.90;99.90;;;;;;4176581;28;20048;-62
2022/12/10 03:53:59;;;;;;;29.73;16.92;;;1.90;99.90;;;;;;4191139;28;20055;-62
2022/12/10 03:56:00;;;;;;;29.08;16.55;;;1.90;99.90;;;;;;4186326;28;20066;-62
2022/12/10 03:58:01;;;;;;;31.02;16.27;;;1.90;99.90;;;;;;4185477;28;20037;-62
2022/12/10 04:00:03;;;;;;;27.90;15.82;;;1.90;99.90;;;;;;4186541;28;20047;-62
2022/12/10 04:02:03;;;;;;;27.40;16.30;;;1.90;99.90;;;;;;4189942;28;20039;-62
2022/12/10 04:04:05;;;;;;;26.50;15.38;;;1.90;99.90;;;;;;4193032;28;20029;-62
2022/12/10 04:06:08;;;;;;;36.13;17.33;;;1.90;99.90;;;;;;4194069;28;20045;-62
2022/12/10 04:08:09;;;;;;;30.77;16.15;;;1.80;99.90;;;;;;4193994;28;20039;-62
2022/12/10 04:10:10;;;;;;;27.17;15.52;;;1.90;99.90;;;;;;4194327;28;20061;-63
2022/12/10 04:12:10;;;;;;;28.15;16.45;;;1.80;99.90;;;;;;4194741;28;20423;-62
2022/12/10 04:16:32;;;;;;;28.27;16.52;;;1.80;99.90;;;;;;4191729;28;20136;-62
2022/12/10 04:18:33;;;;;;;26.70;15.63;;;1.80;99.90;;;;;;4194210;28;20049;-62
2022/12/10 04:27:36;;;;;;;29.35;15.40;;;1.80;99.90;;;;;;4192166;28;20467;-62
2022/12/10 04:29:36;;;;;;;28.75;15.55;;;1.80;99.90;;;;;;4194328;28;20119;-61
2022/12/10 04:31:37;;;;;;;30.77;17.13;;;1.80;99.90;;;;;;4194133;28;20038;-62
2022/12/10 04:33:37;;;;;;;31.20;17.08;;;1.80;99.90;;;;;;4194231;28;20040;-62
2022/12/10 04:35:38;;;;;;;30.55;16.90;;;1.80;99.90;;;;;;4192889;28;20484;-62
2022/12/10 04:37:39;;;;;;;27.75;15.20;;;1.70;99.90;;;;;;4193866;28;20029;-62
2022/12/10 04:39:40;;;;;;;29.45;16.85;;;1.70;99.90;;;;;;4194263;28;20117;-62
2022/12/10 04:41:43;;;;;;;29.75;16.08;;;1.70;99.90;;;;;;4193638;28;20036;-62
2022/12/10 04:43:44;;;;;;;30.40;16.80;;;1.70;99.90;;;;;;4194856;28;20446;-62
2022/12/10 04:45:44;;;;;;;32.50;16.73;;;1.70;99.90;;;;;;4193508;28;20115;-62
2022/12/10 04:47:45;;;;;;;37.47;18.42;;;1.60;99.90;;;;;;4193039;28;20028;-62
2022/12/10 04:49:45;;;;;;;33.75;17.73;;;1.60;99.90;;;;;;4193978;28;20033;-62
2022/12/10 04:51:46;;;;;;;35.75;19.35;;;1.60;99.90;;;;;;4193774;28;20037;-62
2022/12/10 04:53:47;;;;;;;36.00;19.30;;;1.60;99.90;;;;;;4193224;28;20037;-62
2022/12/10 04:55:48;;;;;;;40.05;20.80;;;1.60;99.90;;;;;;4190264;28;20462;-62
2022/12/10 04:57:48;;;;;;;35.58;18.10;;;1.60;99.90;;;;;;4187860;28;20036;-62
2022/12/10 04:59:49;;;;;;;35.05;18.48;;;1.60;99.90;;;;;;4191243;28;20033;-63
2022/12/10 05:01:50;;;;;;;32.10;17.48;;;1.60;99.90;;;;;;4189606;28;20032;-62
2022/12/10 05:03:51;;;;;;;34.67;17.20;;;1.60;99.90;;;;;;4187425;28;20068;-62
2022/12/10 05:05:51;;;;;;;35.63;17.50;;;1.60;99.90;;;;;;4190139;28;20082;-63
2022/12/10 05:07:52;;;;;;;32.13;16.25;;;1.60;99.90;;;;;;4190369;28;20060;-63
2022/12/10 05:09:52;;;;;;;34.03;18.20;;;1.60;99.90;;;;;;4184647;28;20032;-62
2022/12/10 05:11:53;;;;;;;35.47;18.13;;;1.50;99.90;;;;;;4188537;28;20037;-62
2022/12/10 05:13:54;;;;;;;37.50;18.50;;;1.50;99.90;;;;;;4184089;28;20053;-62
2022/12/10 05:15:56;;;;;;;33.22;17.42;;;1.50;99.90;;;;;;4186868;28;20144;-62
2022/12/10 05:17:57;;;;;;;38.60;17.60;;;1.50;99.90;;;;;;4186532;28;20044;-62
2022/12/10 05:19:57;;;;;;;34.45;17.20;;;1.50;99.90;;;;;;4187868;28;20102;-61
2022/12/10 05:24:25;;;;;;;34.75;17.85;;;1.50;99.90;;;;;;4176086;28;20103;-62
2022/12/10 05:26:25;;;;;;;34.72;17.58;;;1.40;99.90;;;;;;4189961;28;20037;-62
2022/12/10 05:28:27;;;;;;;34.53;17.60;;;1.40;99.90;;;;;;4190630;28;20029;-62
2022/12/10 05:30:27;;;;;;;37.45;19.58;;;1.40;99.90;;;;;;4189703;28;20041;-62
2022/12/10 05:32:28;;;;;;;35.67;18.90;;;1.40;99.90;;;;;;4190191;28;20116;-62
2022/12/10 05:34:28;;;;;;;36.45;18.25;;;1.40;99.90;;;;;;4191111;28;20426;-62
2022/12/10 05:36:31;;;;;;;37.53;19.65;;;1.40;99.90;;;;;;4189983;28;20440;-62
2022/12/10 05:38:33;;;;;;;35.20;18.88;;;1.40;99.90;;;;;;4185873;28;20032;-62
2022/12/10 05:40:37;;;;;;;34.33;18.88;;;1.40;99.90;;;;;;4191367;28;20033;-62
2022/12/10 05:42:37;;;;;;;34.13;17.98;;;1.50;99.90;;;;;;4190190;28;20070;-62
2022/12/10 05:44:38;;;;;;;37.97;19.48;;;1.40;99.90;;;;;;4184615;28;20131;-62
2022/12/10 05:46:38;;;;;;;38.47;19.52;;;1.50;99.90;;;;;;4183372;28;20094;-62
2022/12/10 05:48:39;;;;;;;39.55;19.20;;;1.50;99.90;;;;;;4178843;28;20044;-62
2022/12/10 05:50:41;;;;;;;43.03;19.88;;;1.50;99.90;;;;;;4189840;28;20033;-62
2022/12/10 05:52:41;;;;;;;41.08;19.88;;;1.50;99.90;;;;;;4191388;28;20041;-62
2022/12/10 05:54:42;;;;;;;35.60;19.95;;;1.50;99.90;;;;;;4185033;28;20075;-62
2022/12/10 05:56:43;;;;;;;40.20;19.90;;;1.50;99.90;;;;;;4189875;28;20040;-62
2022/12/10 05:58:45;;;;;;;41.42;20.20;;;1.50;99.90;;;;;;4191364;28;20486;-62
2022/12/10 06:00:45;;;;;;;36.40;19.67;;;1.50;99.90;;;;;;4179123;28;20029;-62
2022/12/10 06:02:46;;;;;;;37.50;20.98;;;1.50;99.90;;;;;;4177963;28;20044;-62
2022/12/10 06:04:46;;;;;;;41.92;21.70;;;1.60;99.90;;;;;;4188278;28;20049;-62
2022/12/10 06:06:48;;;;;;;41.45;21.55;;;1.60;99.90;;;;;;4184823;28;20043;-62
2022/12/10 06:08:49;;;;;;;43.92;22.42;;;1.60;99.90;;;;;;4173169;28;20040;-62
2022/12/10 06:10:49;;;;;;;47.58;23.00;;;1.60;99.90;;;;;;4186333;28;20552;-62
2022/12/10 06:12:50;;;;;;;44.83;23.63;;;1.50;99.90;;;;;;4192123;28;20049;-62
2022/12/10 06:14:50;;;;;;;51.40;26.40;;;1.60;99.90;;;;;;4185194;28;20075;-64
2022/12/10 06:16:51;;;;;;;53.58;25.73;;;1.60;99.90;;;;;;4187019;28;20472;-63
2022/12/10 06:18:52;;;;;;;48.55;24.55;;;1.60;99.90;;;;;;4191020;28;20387;-62
2022/12/10 06:20:52;;;;;;;52.63;26.42;;;1.60;99.90;;;;;;4191144;28;20486;-63
2022/12/10 06:22:53;;;;;;;53.05;24.80;;;1.60;99.90;;;;;;4187265;28;20029;-62
2022/12/10 06:24:54;;;;;;;53.42;25.45;;;1.60;99.90;;;;;;4187431;28;20036;-62
2022/12/10 06:26:54;;;;;;;69.25;32.90;;;1.60;99.90;;;;;;4188630;28;20029;-62
2022/12/10 06:28:55;;;;;;;66.65;31.55;;;1.60;99.90;;;;;;4190595;28;20040;-62
2022/12/10 06:30:58;;;;;;;57.50;28.70;;;1.60;99.90;;;;;;4192007;28;20133;-62
2022/12/10 06:32:59;;;;;;;62.92;29.08;;;1.60;99.90;;;;;;4192997;28;20040;-62
2022/12/10 06:34:59;;;;;;;55.33;27.58;;;1.60;99.90;;;;;;4189337;28;20028;-62
2022/12/10 06:37:00;;;;;;;71.18;33.22;;;1.60;99.90;;;;;;4190777;28;20090;-62
2022/12/10 06:39:01;;;;;;;67.43;32.05;;;1.60;99.90;;;;;;4191702;28;20353;-62
2022/12/10 06:41:05;;;;;;;71.78;32.08;;;1.60;99.90;;;;;;4187583;28;20039;-62
2022/12/10 06:43:06;;;;;;;69.88;33.40;;;1.50;99.90;;;;;;4192609;28;20032;-62
2022/12/10 06:45:07;;;;;;;68.10;32.42;;;1.50;99.90;;;;;;4190077;28;20040;-62
2022/12/10 06:47:08;;;;;;;74.93;33.55;;;1.50;99.90;;;;;;4191800;28;20047;-62
2022/12/10 06:49:08;;;;;;;74.72;34.03;;;1.50;99.90;;;;;;4191592;28;20029;-62
2022/12/10 06:51:11;;;;;;;73.00;33.85;;;1.60;99.90;;;;;;4191525;28;20033;-62
2022/12/10 06:53:12;;;;;;;;;;;1.60;99.90;;;;;;4191130;28;20093;-62
2022/12/10 06:55:12;;;;;;;70.72;32.83;;;1.50;99.90;;;;;;4189387;28;19920;-62
2022/12/10 06:57:13;;;;;;;80.57;36.65;;;1.50;99.90;;;;;;4187716;28;20395;-62
2022/12/10 06:59:13;;;;;;;75.72;35.13;;;1.50;99.90;;;;;;4190864;28;20044;-62
2022/12/10 07:01:20;;;;;;;72.50;33.40;;;1.50;99.90;;;;;;4188632;28;20028;-62
2022/12/10 07:03:21;;;;;;;70.93;33.22;;;1.50;99.90;;;;;;4187458;28;20068;-62
2022/12/10 07:05:21;;;;;;;69.13;32.35;;;1.50;99.90;;;;;;4190415;28;20039;-63
2022/12/10 07:07:22;;;;;;;66.28;31.27;;;1.50;99.90;;;;;;4190235;28;20048;-62
2022/12/10 07:09:23;;;;;;;69.75;33.63;;;1.60;99.90;;;;;;4191353;28;20071;-62
2022/12/10 07:11:25;;;;;;;78.72;36.15;;;1.60;99.90;;;;;;4191275;28;20481;-63
2022/12/10 07:13:25;;;;;;;74.75;34.33;;;1.50;99.90;;;;;;4189948;28;20064;-62
2022/12/10 07:15:28;;;;;;;81.57;36.83;;;1.50;99.90;;;;;;4189483;28;20044;-62
2022/12/10 07:17:28;;;;;;;76.45;35.17;;;1.50;99.90;;;;;;4188936;28;20041;-62
2022/12/10 07:19:29;;;;;;;77.65;35.50;;;1.40;99.90;;;;;;4194804;28;20043;-62
2022/12/10 07:21:32;;;;;;;83.28;35.25;;;1.40;99.90;;;;;;4180436;28;20415;-62
2022/12/10 07:23:32;;;;;;;74.05;33.83;;;1.40;99.90;;;;;;4177656;28;20040;-62
2022/12/10 07:25:33;;;;;;;78.40;37.05;;;1.40;99.90;;;;;;4175903;28;20060;-62
2022/12/10 07:27:34;;;;;;;70.15;32.50;;;1.40;99.90;;;;;;4190838;28;20028;-63
2022/12/10 07:29:35;;;;;;;71.50;33.17;;;1.40;99.90;;;;;;4190260;28;20040;-63
2022/12/10 07:31:36;;;;;;;70.28;32.75;;;1.40;99.90;;;;;;4184649;28;20037;-63
2022/12/10 07:33:36;;;;;;;67.63;31.52;;;1.40;99.90;;;;;;4189983;28;20037;-63
2022/12/10 07:35:40;;;;;;;70.07;33.35;;;1.40;99.90;;;;;;4185714;28;20044;-64
2022/12/10 07:37:41;;;;;;;71.25;33.67;;;1.40;99.90;;;;;;4188189;28;20115;-63
2022/12/10 07:39:42;;;;;;;79.38;34.67;;;1.40;99.90;;;;;;4182922;28;20086;-63
2022/12/10 07:41:46;;;;;;;74.17;34.73;;;1.50;99.90;;;;;;4176552;28;20090;-63
2022/12/10 07:43:47;;;;;;;76.88;36.08;;;1.40;99.90;;;;;;4176638;28;20106;-63
2022/12/10 07:45:48;;;;;;;84.00;38.30;;;1.40;99.90;;;;;;4184414;28;20523;-63
2022/12/10 07:47:49;;;;;;;78.68;36.15;;;1.40;99.90;;;;;;4188426;28;20086;-63
2022/12/10 07:49:49;;;;;;;74.47;34.63;;;1.30;99.90;;;;;;4185126;28;20044;-63
2022/12/10 07:51:50;;;;;;;73.25;34.88;;;1.30;99.90;;;;;;4190099;28;20472;-63
2022/12/10 07:53:53;;;;;;;74.72;34.88;;;1.40;99.90;;;;;;4186342;28;20569;-63
2022/12/10 07:55:53;;;;;;;;;;;1.40;99.90;;;;;;4171754;28;20083;-63
2022/12/10 07:57:54;;;;;;;70.55;32.85;;;1.30;99.90;;;;;;4173432;28;20279;-64
2022/12/10 07:59:54;;;;;;;74.32;35.78;;;1.30;99.90;;;;;;4185664;28;20151;-65
2022/12/10 08:01:55;;;;;;;83.00;36.80;;;1.40;99.90;;;;;;4186293;28;20040;-63
2022/12/10 08:03:56;;;;;;;77.20;34.90;;;1.40;99.90;;;;;;4185735;28;20045;-64
2022/12/10 08:06:17;;;;;;;80.47;35.83;;;1.40;99.90;;;;;;4173644;28;20037;-64
2022/12/10 08:08:17;;;;;;;76.90;34.15;;;1.40;99.90;;;;;;4176551;28;20087;-64
2022/12/10 08:10:18;;;;;;;74.95;34.22;;;1.40;99.90;;;;;;4182622;28;20040;-63
2022/12/10 08:12:19;;;;;;;84.22;36.63;;;1.30;99.90;;;;;;4183965;28;20445;-63
2022/12/10 08:14:20;;;;;;;80.18;37.45;;;1.30;99.90;;;;;;4186137;28;20127;-63
2022/12/10 08:16:22;;;;;;;81.85;36.05;;;1.30;99.90;;;;;;4181229;28;20068;-63
2022/12/10 08:18:23;;;;;;;;;;;1.30;99.90;;;;;;4184518;28;20029;-64
2022/12/10 08:20:24;;;;;;;79.80;34.58;;;1.20;99.90;;;;;;4184374;28;20330;-64
2022/12/10 08:22:24;;;;;;;77.35;35.90;;;1.20;99.90;;;;;;4180203;28;20048;-65
2022/12/10 08:24:25;;;;;;;86.32;38.60;;;1.20;99.90;;;;;;4169382;28;20041;-64
2022/12/10 08:26:32;;;;;;;79.57;35.67;;;1.20;99.90;;;;;;4171007;28;20045;-64
2022/12/10 08:28:33;;;;;;;76.68;37.08;;;1.30;99.90;;;;;;4181742;28;20040;-64
2022/12/10 08:30:33;;;;;;;73.53;34.67;;;1.30;99.90;;;;;;4169307;28;20045;-63
2022/12/10 08:32:34;;;;;;;69.55;32.33;;;1.30;99.90;;;;;;4181661;28;20314;-64
2022/12/10 08:34:34;;;;;;;71.68;33.80;;;1.30;99.90;;;;;;4185637;28;20068;-64
2022/12/10 08:36:35;;;;;;;82.22;36.13;;;1.40;99.90;;;;;;4178265;28;20067;-64
2022/12/10 08:38:36;;;;;;;85.63;36.53;;;1.40;99.90;;;;;;4186237;28;20037;-64
2022/12/10 08:40:41;;;;;;;76.28;35.63;;;1.40;99.90;;;;;;4189132;28;20054;-64
2022/12/10 08:42:42;;;;;;;73.32;33.78;;;1.50;99.90;;;;;;4189534;28;20360;-64
2022/12/10 08:44:42;;;;;;;69.40;32.13;;;1.50;99.90;;;;;;4173743;28;21292;-64
2022/12/10 08:46:43;;;;;;;70.97;33.22;;;1.50;99.90;;;;;;4171047;28;20048;-64
2022/12/10 08:48:43;;;;;;;75.78;36.47;;;1.50;99.90;;;;;;4184428;28;20028;-64
2022/12/10 08:50:44;;;;;;;78.65;35.45;;;1.50;99.90;;;;;;4181828;28;20056;-64
2022/12/10 08:52:45;;;;;;;76.40;36.70;;;1.40;99.90;;;;;;4181633;28;20093;-64
2022/12/10 08:54:46;;;;;;;77.82;35.78;;;1.40;99.90;;;;;;4180499;28;20483;-64
2022/12/10 08:56:46;;;;;;;80.95;38.05;;;1.40;99.90;;;;;;4173656;28;20044;-63
2022/12/10 08:58:47;;;;;;;74.55;35.97;;;1.40;99.90;;;;;;4184646;28;20029;-63
2022/12/10 09:00:48;;;;;;;72.22;33.63;;;1.40;99.90;;;;;;4177531;28;20106;-64
2022/12/10 09:02:49;;;;;;;72.75;35.38;;;1.40;99.90;;;;;;4182904;28;20563;-63
2022/12/10 09:04:50;;;;;;;69.50;32.53;;;1.50;99.90;;;;;;4193130;28;20044;-63
2022/12/10 09:06:52;;;;;;;75.25;35.17;;;1.50;99.90;;;;;;4189993;28;20032;-64
2022/12/10 09:08:53;;;;;;;74.70;35.28;;;1.50;99.90;;;;;;4187954;28;20041;-65
2022/12/10 09:10:54;;;;;;;73.88;34.90;;;1.50;99.90;;;;;;4191310;28;20041;-64
2022/12/10 09:12:54;;;;;;;68.50;32.42;;;1.50;99.90;;;;;;4184240;28;20537;-64
2022/12/10 09:14:55;;;;;;;71.25;33.55;;;1.50;99.90;;;;;;4184925;28;20392;-64
2022/12/10 09:16:56;;;;;;;69.47;33.97;;;1.50;99.90;;;;;;4178779;28;20048;-65
2022/12/10 09:18:58;;;;;;;67.90;32.92;;;1.60;99.90;;;;;;4176015;28;20103;-64
2022/12/10 09:20:59;;;;;;;66.50;31.83;;;1.60;99.90;;;;;;4190642;28;20064;-64
2022/12/10 09:23:00;;;;;;;57.65;30.75;;;1.60;99.90;;;;;;4190960;28;20028;-64
2022/12/10 09:25:00;;;;;;;70.03;31.92;;;1.60;99.90;;;;;;4187966;28;20045;-64
2022/12/10 09:27:02;;;;;;;65.90;30.40;;;1.60;99.90;;;;;;4192911;28;20036;-63
2022/12/10 09:29:02;;;;;;;56.50;28.03;;;1.70;99.90;;;;;;4192421;28;20438;-64
2022/12/10 09:31:05;;;;;;;62.83;29.15;;;1.70;99.90;;;;;;4186876;28;20033;-64
2022/12/10 09:33:05;;;;;;;61.95;30.02;;;1.70;99.90;;;;;;4179975;28;20064;-64
2022/12/10 09:35:07;;;;;;;58.28;28.05;;;1.60;99.90;;;;;;4190618;28;20044;-64
2022/12/10 09:37:07;;;;;;;58.17;28.08;;;1.50;99.90;;;;;;4183665;28;20396;-63
2022/12/10 09:39:08;;;;;;;55.60;28.50;;;1.50;99.90;;;;;;4179835;28;20029;-64
2022/12/10 09:41:15;;;;;;;56.75;28.13;;;1.50;99.90;;;;;;4175704;28;20084;-64
2022/12/10 09:43:50;;;;;;;51.38;26.13;;;1.50;99.90;;;;;;4173439;28;20036;-64
2022/12/10 09:46:32;;;;;;;60.38;28.50;;;1.50;99.90;;;;;;4178702;28;20479;-63
2022/12/10 09:48:56;;;;;;;58.63;28.13;;;1.50;99.90;;;;;;4133909;28;20038;-64
2022/12/10 09:51:19;;;;;;;58.10;28.63;;;1.50;99.90;;;;;;4168499;28;20048;-64
2022/12/10 09:53:20;;;;;;;57.85;27.60;;;1.50;99.90;;;;;;4192301;28;20032;-63
2022/12/10 09:55:33;;;;;;;59.83;29.60;;;1.50;99.90;;;;;;4185601;28;20055;-64
2022/12/10 09:57:42;;;;;;;67.88;30.83;;;1.40;99.90;;;;;;4185478;28;20112;-64
2022/12/10 09:59:48;;;;;;;60.22;30.10;;;1.50;99.90;;;;;;4187489;28;20037;-63
2022/12/10 10:01:59;;;;;;;60.03;29.08;;;1.50;99.90;;;;;;4190133;28;20475;-64
2022/12/10 10:03:59;;;;;;;60.72;28.90;;;1.50;99.90;;;;;;4186944;28;20037;-64
2022/12/10 10:06:02;;;;;;;54.80;26.73;;;1.50;99.90;;;;;;4179643;28;20106;-64
2022/12/10 10:08:20;;;;;;;61.50;30.10;;;1.50;99.90;;;;;;4184521;28;20028;-64
2022/12/10 10:10:23;;;;;;;58.05;28.42;;;1.60;99.90;;;;;;4186298;28;20040;-64
2022/12/10 10:12:28;;;;;;;62.58;30.42;;;1.50;99.90;;;;;;4185389;28;20120;-64
2022/12/10 10:14:29;;;;;;;58.05;29.73;;;1.50;99.90;;;;;;4187900;28;20033;-64
2022/12/10 10:16:53;;;;;;;73.63;33.97;;;1.60;99.90;;;;;;4178137;28;20040;-64
2022/12/10 10:19:01;;;;;;;65.57;31.05;;;1.50;99.90;;;;;;4188893;28;20037;-64
2022/12/10 10:21:03;;;;;;;69.25;32.63;;;1.60;99.90;;;;;;4189027;28;20036;-64
2022/12/10 10:23:03;;;;;;;73.30;33.30;;;1.60;99.90;;;;;;4189037;28;20052;-64
2022/12/10 10:25:06;;;;;;;69.85;31.73;;;1.70;99.90;;;;;;4190200;28;20029;-65
2022/12/10 10:27:14;;;;;;;70.53;33.05;;;1.70;99.90;;;;;;4189743;28;20048;-64
2022/12/10 10:29:18;;;;;;;70.32;32.55;;;1.70;99.90;;;;;;4190830;28;20491;-64
2022/12/10 10:31:25;;;;;;;71.45;33.17;;;1.70;99.90;;;;;;4187010;28;20045;-64
2022/12/10 10:33:25;;;;;;;73.30;33.45;;;1.70;99.90;;;;;;4189890;28;20040;-65
2022/12/10 10:35:30;;;;;;;69.18;32.75;;;1.70;99.90;;;;;;4188124;28;20056;-64
2022/12/10 10:37:41;;;;;;;62.75;30.67;;;1.70;99.90;;;;;;4190509;28;20515;-64
2022/12/10 10:39:47;;;;;;;71.70;33.55;;;1.70;99.90;;;;;;4188199;28;20033;-64
2022/12/10 10:41:53;;;;;;;59.25;29.65;;;1.60;99.90;;;;;;4187980;28;20042;-64
2022/12/10 10:44:03;;;;;;;70.78;32.92;;;1.70;99.90;;;;;;4191743;28;20035;-65
2022/12/10 10:46:11;;;;;;;72.03;35.08;;;1.70;99.90;;;;;;4187328;28;20514;-64